Time;durP1;ratioP1;P1;durP2;ratioP2;P2;SDS_P1;SDS_P2;PMS_P1;PMS_P2;Temp;Humidity;BMP_temperature;BMP_pressure;BME280_temperature;BME280_humidity;BME280_pressure;Samples;Min_cycle;Max_cycle;Signal;HPM_P1;HPM_P2
2023/05/14 00:01:47;;;;;;;13.30;12.80;;;10.30;99.90;;;;;;5097847;28;20457;-67
2023/05/14 00:04:14;;;;;;;12.83;12.33;;;10.30;99.90;;;;;;5101371;28;20921;-69
2023/05/14 00:06:42;;;;;;;13.20;12.70;;;10.30;99.90;;;;;;5094484;28;20830;-68
2023/05/14 00:09:10;;;;;;;12.93;12.43;;;10.30;99.90;;;;;;5104609;28;20461;-68
2023/05/14 00:11:36;;;;;;;13.17;12.67;;;10.20;99.90;;;;;;5094959;28;21048;-68
2023/05/14 00:14:05;;;;;;;12.60;12.10;;;10.20;99.90;;;;;;5100088;28;20458;-67
2023/05/14 00:16:33;;;;;;;13.20;12.70;;;10.20;99.90;;;;;;5096145;28;20493;-68
2023/05/14 00:19:00;;;;;;;13.57;13.07;;;10.20;99.90;;;;;;5098664;28;20484;-68
2023/05/14 00:21:27;;;;;;;13.93;13.43;;;10.10;99.90;;;;;;5093411;28;20461;-68
2023/05/14 00:23:53;;;;;;;13.80;13.30;;;10.10;99.90;;;;;;5102519;28;20462;-69
2023/05/14 00:26:20;;;;;;;13.50;13.00;;;10.10;99.90;;;;;;5101955;28;20465;-68
2023/05/14 00:28:47;;;;;;;13.20;12.70;;;10.10;99.90;;;;;;5104153;28;20870;-68
2023/05/14 00:31:14;;;;;;;13.73;13.23;;;10.00;99.90;;;;;;5096892;27;21875;-68
2023/05/14 00:33:43;;;;;;;13.33;12.83;;;10.00;99.90;;;;;;5097389;27;20472;-68
2023/05/14 00:36:10;;;;;;;13.20;12.70;;;10.00;99.90;;;;;;5108143;28;20481;-68
2023/05/14 00:38:37;;;;;;;13.80;13.30;;;9.90;99.90;;;;;;5101131;28;20555;-68
2023/05/14 00:41:04;;;;;;;13.80;13.30;;;9.90;99.90;;;;;;5100658;27;20917;-69
2023/05/14 00:43:32;;;;;;;13.73;13.23;;;9.80;99.90;;;;;;5103767;27;21652;-69
2023/05/14 00:45:59;;;;;;;13.80;13.30;;;9.70;99.90;;;;;;5096393;28;20548;-68
2023/05/14 00:48:27;;;;;;;13.67;13.17;;;9.70;99.90;;;;;;5111449;28;20480;-69
2023/05/14 00:50:55;;;;;;;14.27;13.67;;;9.70;99.90;;;;;;5097133;28;21000;-66
2023/05/14 00:53:24;;;;;;;14.07;13.50;;;9.70;99.90;;;;;;5110389;28;20872;-65
2023/05/14 00:55:52;;;;;;;12.87;12.37;;;9.70;99.90;;;;;;5106418;27;20466;-66
2023/05/14 00:58:20;;;;;;;13.60;13.10;;;9.70;99.90;;;;;;5103318;28;20472;-68
2023/05/14 01:00:47;;;;;;;12.63;12.13;;;9.70;99.90;;;;;;5107139;28;20450;-70
2023/05/14 01:03:14;;;;;;;13.30;12.80;;;9.70;99.90;;;;;;5105801;28;20477;-67
2023/05/14 01:05:48;;;;;;;12.37;11.87;;;9.80;99.90;;;;;;5109038;28;20522;-67
2023/05/14 01:08:27;;;;;;;12.43;11.93;;;9.80;99.90;;;;;;5101796;27;20462;-66
2023/05/14 01:11:03;;;;;;;12.10;11.63;;;9.70;99.90;;;;;;5110282;28;20457;-66
2023/05/14 01:13:41;;;;;;;12.57;12.07;;;9.60;99.90;;;;;;5100713;27;20465;-67
2023/05/14 01:16:13;;;;;;;12.67;12.17;;;9.50;99.90;;;;;;5100073;27;20456;-67
2023/05/14 01:18:41;;;;;;;12.97;12.37;;;9.50;99.90;;;;;;5106398;27;20578;-67
2023/05/14 01:21:25;;;;;;;12.33;11.83;;;9.60;99.90;;;;;;5107663;27;20487;-66
2023/05/14 01:23:52;;;;;;;11.93;11.53;;;9.60;99.90;;;;;;5102919;27;20683;-67
2023/05/14 01:26:19;;;;;;;13.00;12.50;;;9.50;99.90;;;;;;5104228;28;20462;-67
2023/05/14 01:28:49;;;;;;;12.27;11.77;;;9.40;99.90;;;;;;5103808;28;20459;-67
2023/05/14 01:31:26;;;;;;;12.80;12.30;;;9.40;99.90;;;;;;5093999;27;20462;-67
2023/05/14 01:33:54;;;;;;;12.70;12.20;;;9.40;99.90;;;;;;5098499;27;20465;-67
2023/05/14 01:36:21;;;;;;;13.07;12.57;;;9.40;99.90;;;;;;5102450;27;20503;-67
2023/05/14 01:38:50;;;;;;;13.50;13.00;;;9.40;99.90;;;;;;5105061;28;20454;-67
2023/05/14 01:41:20;;;;;;;13.97;13.47;;;9.40;99.90;;;;;;5102042;27;20514;-67
2023/05/14 01:43:48;;;;;;;12.30;11.80;;;9.50;99.90;;;;;;5105817;28;20454;-66
2023/05/14 01:46:19;;;;;;;12.60;12.10;;;9.50;99.90;;;;;;5097621;28;20465;-66
2023/05/14 01:48:46;;;;;;;12.60;12.10;;;9.50;99.90;;;;;;5099438;27;20537;-67
2023/05/14 01:51:14;;;;;;;12.07;11.63;;;9.40;99.90;;;;;;5102072;27;20453;-67
2023/05/14 01:53:41;;;;;;;14.97;14.27;;;9.30;99.90;;;;;;5108819;28;20457;-66
2023/05/14 01:56:09;;;;;;;16.33;15.10;;;9.20;99.90;;;;;;5103383;28;20822;-65
2023/05/14 01:58:36;;;;;;;9.80;9.50;;;9.30;99.90;;;;;;5093774;27;20458;-67
2023/05/14 02:01:03;;;;;;;10.73;10.33;;;9.30;99.90;;;;;;5105958;28;21018;-66
2023/05/14 02:03:30;;;;;;;11.00;10.60;;;9.40;99.90;;;;;;5105923;27;20554;-67
2023/05/14 02:05:57;;;;;;;14.17;13.50;;;9.40;99.90;;;;;;5101630;27;20465;-66
2023/05/14 02:08:24;;;;;;;11.77;11.17;;;9.40;99.90;;;;;;5104498;28;20555;-66
2023/05/14 02:10:51;;;;;;;9.67;9.37;;;9.40;99.90;;;;;;5097634;27;20451;-67
2023/05/14 02:13:20;;;;;;;10.47;10.07;;;9.40;99.90;;;;;;5109976;28;20510;-67
2023/05/14 02:15:48;;;;;;;11.13;10.63;;;9.40;99.90;;;;;;5108991;28;20872;-66
2023/05/14 02:18:15;;;;;;;10.03;9.70;;;9.40;99.90;;;;;;5101290;27;21093;-67
2023/05/14 02:20:42;;;;;;;10.33;9.93;;;9.40;99.90;;;;;;5106826;28;21303;-66
2023/05/14 02:23:09;;;;;;;11.20;10.80;;;9.40;99.90;;;;;;5105455;28;20498;-66
2023/05/14 02:25:36;;;;;;;10.73;10.33;;;9.30;99.90;;;;;;5101248;28;20481;-66
2023/05/14 02:28:02;;;;;;;10.50;10.10;;;9.30;99.90;;;;;;5105228;28;20808;-66
2023/05/14 02:30:31;;;;;;;9.30;9.00;;;9.20;99.90;;;;;;5093355;28;20453;-67
2023/05/14 02:33:00;;;;;;;9.53;9.23;;;9.20;99.90;;;;;;5098651;28;20534;-67
2023/05/14 02:35:26;;;;;;;11.17;10.67;;;9.20;99.90;;;;;;5102016;28;20465;-67
2023/05/14 02:37:54;;;;;;;10.43;10.03;;;9.20;99.90;;;;;;5096011;27;20546;-67
2023/05/14 02:40:20;;;;;;;10.60;10.20;;;9.20;99.90;;;;;;5102233;28;20980;-67
2023/05/14 02:42:49;;;;;;;11.00;10.60;;;9.20;99.90;;;;;;5103123;28;20461;-66
2023/05/14 02:45:17;;;;;;;9.60;9.30;;;9.30;99.90;;;;;;5093818;28;20453;-67
2023/05/14 02:47:45;;;;;;;10.17;9.77;;;9.30;99.90;;;;;;5103573;28;20869;-67
2023/05/14 02:50:12;;;;;;;12.50;11.87;;;9.10;99.90;;;;;;5099473;28;20462;-67
2023/05/14 02:52:39;;;;;;;13.63;12.60;;;9.20;99.90;;;;;;5099842;28;20516;-67
2023/05/14 02:55:06;;;;;;;11.00;10.60;;;9.00;99.90;;;;;;5101899;28;20813;-67
2023/05/14 02:57:33;;;;;;;9.90;9.60;;;9.00;99.90;;;;;;5096895;28;20519;-66
2023/05/14 03:00:00;;;;;;;9.93;9.63;;;8.90;99.90;;;;;;5093229;28;20530;-67
2023/05/14 03:02:26;;;;;;;10.53;10.13;;;8.80;99.90;;;;;;5102642;28;20900;-67
2023/05/14 03:04:55;;;;;;;13.00;12.50;;;8.60;99.90;;;;;;5100387;28;20465;-66
2023/05/14 03:07:22;;;;;;;11.10;10.70;;;8.70;99.90;;;;;;5107102;28;20457;-67
2023/05/14 03:09:49;;;;;;;11.70;11.30;;;8.70;99.90;;;;;;5105361;28;20519;-69
2023/05/14 03:12:16;;;;;;;10.60;10.20;;;8.60;99.90;;;;;;5106096;28;20525;-66
2023/05/14 03:14:44;;;;;;;11.23;10.83;;;8.60;99.90;;;;;;5103380;27;20461;-67
2023/05/14 03:17:11;;;;;;;11.80;11.40;;;8.50;99.90;;;;;;5102811;28;20488;-67
2023/05/14 03:19:37;;;;;;;11.23;10.83;;;8.40;99.90;;;;;;5095393;27;20543;-66
2023/05/14 03:22:06;;;;;;;11.80;11.40;;;8.40;99.90;;;;;;5101221;28;20457;-68
2023/05/14 03:24:33;;;;;;;11.20;10.80;;;8.40;99.90;;;;;;5098092;28;20462;-68
2023/05/14 03:27:00;;;;;;;11.13;10.73;;;8.40;99.90;;;;;;5089974;28;20458;-68
2023/05/14 03:29:27;;;;;;;10.97;10.57;;;8.50;99.90;;;;;;5100957;28;20817;-67
2023/05/14 03:31:54;;;;;;;10.63;10.23;;;8.50;99.90;;;;;;5094353;28;20465;-67
2023/05/14 03:34:21;;;;;;;11.10;10.70;;;8.50;99.90;;;;;;5106901;28;20472;-66
2023/05/14 03:36:48;;;;;;;12.47;11.97;;;8.40;99.90;;;;;;5103366;28;20469;-67
2023/05/14 03:39:18;;;;;;;11.37;10.97;;;8.30;99.90;;;;;;5096569;28;20974;-67
2023/05/14 03:41:46;;;;;;;11.80;11.40;;;8.30;99.90;;;;;;5105272;28;20461;-67
2023/05/14 03:44:12;;;;;;;12.40;11.90;;;8.20;99.90;;;;;;5097514;28;20540;-67
2023/05/14 03:46:39;;;;;;;12.30;11.80;;;8.30;99.90;;;;;;5100290;28;20462;-66
2023/05/14 03:49:06;;;;;;;14.53;13.93;;;8.40;99.90;;;;;;5100133;28;20492;-67
2023/05/14 03:51:34;;;;;;;11.70;11.30;;;8.40;99.90;;;;;;5105628;28;20521;-67
2023/05/14 03:54:01;;;;;;;13.10;12.60;;;8.30;99.90;;;;;;5100372;28;20838;-67
2023/05/14 03:56:29;;;;;;;12.63;12.13;;;8.30;99.90;;;;;;5096892;28;20453;-68
2023/05/14 03:58:56;;;;;;;13.00;12.50;;;8.20;99.90;;;;;;5097783;28;20549;-68
2023/05/14 04:01:25;;;;;;;14.00;13.40;;;8.20;99.90;;;;;;5098526;28;20458;-67
2023/05/14 04:03:52;;;;;;;13.10;12.60;;;8.10;99.90;;;;;;5105751;28;20472;-68
2023/05/14 04:06:18;;;;;;;12.43;11.93;;;8.10;99.90;;;;;;5105525;28;20513;-67
2023/05/14 04:08:45;;;;;;;12.50;12.00;;;8.00;99.90;;;;;;5106980;28;20801;-66
2023/05/14 04:11:12;;;;;;;13.20;12.70;;;8.00;99.90;;;;;;5100173;27;21221;-67
2023/05/14 04:13:40;;;;;;;13.53;13.03;;;8.00;99.90;;;;;;5104132;27;20453;-68
2023/05/14 04:16:07;;;;;;;12.97;12.47;;;8.00;99.90;;;;;;5111353;28;20508;-67
2023/05/14 04:18:34;;;;;;;12.93;12.43;;;8.10;99.90;;;;;;5107575;27;20509;-67
2023/05/14 04:21:02;;;;;;;13.63;13.13;;;8.10;99.90;;;;;;5112724;28;20460;-67
2023/05/14 04:23:30;;;;;;;12.50;12.00;;;8.10;99.90;;;;;;5104129;28;20568;-67
2023/05/14 04:25:57;;;;;;;13.07;12.57;;;8.10;99.90;;;;;;5106302;28;20461;-67
2023/05/14 04:28:24;;;;;;;12.30;11.80;;;8.10;99.90;;;;;;5105883;27;20472;-66
2023/05/14 04:30:53;;;;;;;14.43;13.77;;;8.20;99.90;;;;;;5103179;28;20465;-67
2023/05/14 04:33:20;;;;;;;12.53;12.03;;;8.20;99.90;;;;;;5096007;28;20476;-68
2023/05/14 04:35:47;;;;;;;12.70;12.20;;;8.30;99.90;;;;;;5099090;28;20943;-67
2023/05/14 04:38:14;;;;;;;12.40;11.90;;;8.40;99.90;;;;;;5102195;28;20864;-68
2023/05/14 04:40:42;;;;;;;12.43;11.93;;;8.40;99.90;;;;;;5107691;27;20465;-67
2023/05/14 04:43:09;;;;;;;12.27;11.77;;;8.50;99.90;;;;;;5106987;28;20492;-67
2023/05/14 04:45:36;;;;;;;12.67;12.17;;;8.50;99.90;;;;;;5101132;27;20955;-67
2023/05/14 04:48:06;;;;;;;12.03;11.63;;;8.50;99.90;;;;;;5105170;28;20488;-67
2023/05/14 04:50:34;;;;;;;12.63;12.13;;;8.60;99.90;;;;;;5101619;27;20465;-68
2023/05/14 04:53:02;;;;;;;13.30;12.80;;;8.70;99.90;;;;;;5097684;27;20462;-66
2023/05/14 04:55:29;;;;;;;12.63;12.13;;;8.70;99.90;;;;;;5110283;28;20475;-67
2023/05/14 04:57:55;;;;;;;12.73;12.23;;;8.70;99.90;;;;;;5103016;28;20505;-67
2023/05/14 05:00:23;;;;;;;13.27;12.77;;;8.80;99.90;;;;;;5110082;28;20453;-67
2023/05/14 05:02:50;;;;;;;12.17;11.70;;;8.90;99.90;;;;;;5105457;28;20457;-67
2023/05/14 05:05:20;;;;;;;13.27;12.77;;;8.90;99.90;;;;;;5103269;27;20470;-66
2023/05/14 05:07:46;;;;;;;12.80;12.30;;;9.00;99.90;;;;;;5105532;27;20460;-67
2023/05/14 05:10:13;;;;;;;14.00;13.47;;;9.20;99.90;;;;;;5106118;27;20458;-67
2023/05/14 05:12:41;;;;;;;12.57;12.07;;;9.20;99.90;;;;;;5110062;28;20873;-68
2023/05/14 05:15:09;;;;;;;12.10;11.60;;;9.20;99.90;;;;;;5107229;28;20461;-67
2023/05/14 05:17:38;;;;;;;12.70;12.20;;;9.20;99.90;;;;;;5104338;28;20872;-67
2023/05/14 05:20:08;;;;;;;12.37;11.87;;;9.20;99.90;;;;;;5101567;27;20868;-68
2023/05/14 05:22:36;;;;;;;12.73;12.23;;;9.20;99.90;;;;;;5104808;27;20519;-67
2023/05/14 05:25:05;;;;;;;11.70;11.30;;;9.30;99.90;;;;;;5103731;28;20793;-67
2023/05/14 05:27:31;;;;;;;11.77;11.37;;;9.40;99.90;;;;;;5094982;28;21016;-67
2023/05/14 05:30:00;;;;;;;12.67;12.17;;;9.40;99.90;;;;;;5103407;28;20541;-67
2023/05/14 05:32:26;;;;;;;12.07;11.60;;;9.50;99.90;;;;;;5094483;27;20465;-67
2023/05/14 05:34:54;;;;;;;12.70;12.20;;;9.60;99.90;;;;;;5100699;27;20461;-67
2023/05/14 05:37:21;;;;;;;12.37;11.87;;;9.70;99.90;;;;;;5102820;28;20825;-67
2023/05/14 05:39:50;;;;;;;12.30;11.80;;;9.80;99.90;;;;;;5096057;28;20803;-67
2023/05/14 05:42:18;;;;;;;11.93;11.53;;;9.90;99.90;;;;;;5100157;27;20467;-68
2023/05/14 05:44:45;;;;;;;12.40;11.90;;;10.20;99.90;;;;;;5109413;28;20453;-68
2023/05/14 05:47:13;;;;;;;12.60;12.10;;;10.40;99.90;;;;;;5110329;28;20873;-67
2023/05/14 05:49:40;;;;;;;11.80;11.40;;;10.50;99.90;;;;;;5104158;27;20466;-66
2023/05/14 05:52:08;;;;;;;14.07;13.40;;;10.70;99.90;;;;;;5102416;28;20527;-67
2023/05/14 05:54:35;;;;;;;12.80;12.30;;;10.80;99.90;;;;;;5102044;27;20454;-67
2023/05/14 05:57:04;;;;;;;12.70;12.17;;;11.00;99.90;;;;;;5109515;28;20457;-67
2023/05/14 05:59:31;;;;;;;12.60;12.00;;;11.10;99.90;;;;;;5096404;28;21044;-67
2023/05/14 06:01:58;;;;;;;10.80;10.40;;;11.10;99.90;;;;;;5097237;27;20468;-68
2023/05/14 06:04:25;;;;;;;13.00;12.17;;;11.20;99.90;;;;;;5106611;28;20465;-67
2023/05/14 06:06:52;;;;;;;11.67;11.27;;;11.30;99.90;;;;;;5101336;28;20465;-67
2023/05/14 06:09:19;;;;;;;13.77;12.97;;;11.50;99.90;;;;;;5099092;27;20462;-67
2023/05/14 06:11:46;;;;;;;13.50;12.70;;;11.60;99.90;;;;;;5106657;28;20547;-67
2023/05/14 06:14:15;;;;;;;13.60;12.80;;;11.60;99.90;;;;;;5104028;27;20518;-67
2023/05/14 06:16:43;;;;;;;13.90;13.13;;;11.80;99.90;;;;;;5102627;27;20465;-67
2023/05/14 06:19:10;;;;;;;10.80;10.37;;;11.80;99.90;;;;;;5101335;27;20497;-67
2023/05/14 06:21:37;;;;;;;13.27;12.60;;;11.90;99.90;;;;;;5106293;28;20874;-66
2023/05/14 06:24:05;;;;;;;15.83;14.87;;;12.00;99.90;;;;;;5105225;27;20457;-68
2023/05/14 06:26:32;;;;;;;18.90;17.60;;;12.10;99.90;;;;;;5100866;28;20461;-67
2023/05/14 06:29:00;;;;;;;9.67;9.37;;;12.20;99.90;;;;;;5099349;28;20449;-67
2023/05/14 06:31:29;;;;;;;13.30;12.70;;;12.20;99.90;;;;;;5097297;28;20461;-68
2023/05/14 06:33:56;;;;;;;10.70;10.30;;;12.30;99.90;;;;;;5091494;28;20457;-67
2023/05/14 06:36:23;;;;;;;10.50;10.07;;;12.40;99.90;;;;;;5107609;28;20971;-67
2023/05/14 06:38:50;;;;;;;11.77;11.17;;;12.50;99.90;;;;;;5104707;28;20481;-67
2023/05/14 06:41:17;;;;;;;11.43;10.93;;;12.50;99.90;;;;;;5105155;27;20522;-67
2023/05/14 06:43:43;;;;;;;9.63;9.33;;;12.60;99.90;;;;;;5101075;27;20465;-67
2023/05/14 06:46:10;;;;;;;9.60;9.30;;;12.70;99.90;;;;;;5096964;28;20465;-67
2023/05/14 06:48:40;;;;;;;10.53;10.13;;;12.80;99.90;;;;;;5105047;28;20507;-68
2023/05/14 06:51:07;;;;;;;14.20;13.30;;;12.80;99.90;;;;;;5105217;28;21011;-68
2023/05/14 06:53:34;;;;;;;10.20;9.80;;;12.90;99.90;;;;;;5106355;28;20460;-67
2023/05/14 06:56:01;;;;;;;11.70;11.10;;;13.00;99.90;;;;;;5101809;27;20457;-68
2023/05/14 06:58:28;;;;;;;9.80;9.50;;;13.10;99.90;;;;;;5097317;27;20494;-67
2023/05/14 07:00:56;;;;;;;8.93;8.63;;;13.20;99.90;;;;;;5101126;28;20458;-67
2023/05/14 07:03:23;;;;;;;10.00;9.60;;;13.30;99.90;;;;;;5107089;28;20480;-67
2023/05/14 07:05:51;;;;;;;8.70;8.40;;;13.30;99.90;;;;;;5104678;28;20526;-67
2023/05/14 07:08:19;;;;;;;11.63;10.50;;;13.40;99.90;;;;;;5108135;28;20472;-67
2023/05/14 07:10:45;;;;;;;9.20;8.80;;;13.50;99.90;;;;;;5094899;27;20458;-68
2023/05/14 07:13:12;;;;;;;8.23;7.93;;;13.60;99.90;;;;;;5103730;28;20546;-68
2023/05/14 07:15:39;;;;;;;8.30;8.00;;;13.70;99.90;;;;;;5101731;28;20508;-68
2023/05/14 07:18:06;;;;;;;10.37;9.47;;;13.90;99.90;;;;;;5107568;28;20958;-68
2023/05/14 07:20:33;;;;;;;8.47;8.17;;;14.00;99.90;;;;;;5100009;28;21030;-68
2023/05/14 07:23:02;;;;;;;9.13;8.77;;;14.10;99.90;;;;;;5103704;28;20457;-67
2023/05/14 07:25:29;;;;;;;8.20;7.90;;;14.20;99.90;;;;;;5107971;28;20822;-68
2023/05/14 07:27:56;;;;;;;11.20;10.47;;;14.20;99.90;;;;;;5104590;28;20465;-68
2023/05/14 07:30:23;;;;;;;11.57;8.53;;;14.30;99.90;;;;;;5106449;28;20465;-68
2023/05/14 07:32:50;;;;;;;8.70;8.23;;;14.40;99.90;;;;;;5103638;28;20454;-67
2023/05/14 07:35:17;;;;;;;8.03;7.63;;;14.50;99.90;;;;;;5092852;28;20890;-68
2023/05/14 07:37:44;;;;;;;5.23;5.03;;;14.60;99.90;;;;;;5102383;28;20461;-68
2023/05/14 07:40:13;;;;;;;10.83;9.37;;;14.70;99.90;;;;;;5102835;28;20491;-68
2023/05/14 07:42:40;;;;;;;5.33;5.13;;;14.90;99.90;;;;;;5105646;28;20460;-68
2023/05/14 07:45:09;;;;;;;7.27;6.77;;;14.80;99.90;;;;;;5102599;28;20724;-68
2023/05/14 07:47:35;;;;;;;6.27;5.80;;;14.90;99.90;;;;;;5100485;28;20983;-68
2023/05/14 07:50:04;;;;;;;9.53;8.93;;;15.00;99.90;;;;;;5071315;28;20467;-68
2023/05/14 07:52:31;;;;;;;6.97;6.67;;;15.00;99.90;;;;;;5074478;28;20622;-70
2023/05/14 07:54:58;;;;;;;5.20;5.00;;;15.10;99.90;;;;;;5080630;28;20454;-68
2023/05/14 07:57:27;;;;;;;10.13;9.27;;;15.20;99.90;;;;;;5079829;28;20487;-68
2023/05/14 07:59:54;;;;;;;8.43;7.90;;;15.30;99.90;;;;;;5095909;28;20496;-68
2023/05/14 08:02:21;;;;;;;6.60;6.30;;;15.40;99.90;;;;;;5094153;28;20847;-67
2023/05/14 08:04:48;;;;;;;6.10;5.90;;;15.60;99.90;;;;;;5092293;28;21093;-68
2023/05/14 08:07:15;;;;;;;5.30;5.10;;;15.60;99.90;;;;;;5089239;28;20466;-68
2023/05/14 08:09:42;;;;;;;5.37;5.17;;;15.80;99.90;;;;;;5078187;28;20561;-68
2023/05/14 08:12:09;;;;;;;5.93;5.73;;;15.90;99.90;;;;;;5077133;28;20888;-69
2023/05/14 08:14:37;;;;;;;5.90;5.67;;;16.00;99.90;;;;;;5092247;28;20458;-68
2023/05/14 08:17:05;;;;;;;5.17;4.97;;;16.30;99.90;;;;;;5085133;28;20456;-68
2023/05/14 08:19:32;;;;;;;7.47;7.07;;;16.70;99.90;;;;;;5089944;28;20859;-68
2023/05/14 08:22:00;;;;;;;10.17;9.43;;;17.10;99.90;;;;;;5082623;28;20462;-68
2023/05/14 08:24:27;;;;;;;6.10;5.90;;;17.50;99.90;;;;;;5078792;28;20457;-68
2023/05/14 08:26:54;;;;;;;6.80;6.60;;;18.10;99.90;;;;;;5075980;28;20463;-68
2023/05/14 08:29:22;;;;;;;9.73;9.17;;;18.10;99.90;;;;;;5086332;28;20509;-69
2023/05/14 08:31:50;;;;;;;8.63;8.33;;;18.60;99.90;;;;;;5093218;28;20464;-68
2023/05/14 08:34:17;;;;;;;10.80;10.30;;;19.00;99.90;;;;;;5078018;28;20463;-68
2023/05/14 08:36:44;;;;;;;13.17;12.43;;;19.20;99.90;;;;;;5079031;28;20511;-67
2023/05/14 08:39:11;;;;;;;11.30;10.80;;;19.40;99.90;;;;;;5082973;28;20484;-66
2023/05/14 08:41:39;;;;;;;13.60;13.00;;;19.80;99.90;;;;;;5074790;28;20968;-67
2023/05/14 08:44:09;;;;;;;12.60;11.90;;;19.50;99.90;;;;;;5088220;28;20863;-67
2023/05/14 08:46:37;;;;;;;11.50;11.10;;;20.20;99.90;;;;;;5090792;28;20459;-67
2023/05/14 08:49:16;;;;;;;13.73;13.07;;;21.10;99.90;;;;;;5087860;28;20499;-68
2023/05/14 08:51:43;;;;;;;15.47;14.37;;;21.90;99.90;;;;;;5084761;28;20588;-67
2023/05/14 08:54:14;;;;;;;28.63;26.13;;;21.90;99.90;;;;;;5084889;28;20928;-67
2023/05/14 08:56:41;;;;;;;19.10;17.63;;;21.90;99.90;;;;;;5079206;28;20503;-67
2023/05/14 08:59:09;;;;;;;15.00;14.13;;;22.30;99.90;;;;;;5086942;28;20543;-67
2023/05/14 09:01:37;;;;;;;13.47;12.80;;;22.40;99.90;;;;;;5087286;28;20472;-66
2023/05/14 09:04:07;;;;;;;12.30;11.80;;;22.70;99.90;;;;;;5086696;28;20864;-67
2023/05/14 09:06:36;;;;;;;16.07;14.93;;;22.90;99.90;;;;;;5097495;28;20464;-67
2023/05/14 09:09:03;;;;;;;15.90;15.10;;;23.00;99.90;;;;;;5076866;28;20598;-67
2023/05/14 09:11:31;;;;;;;19.60;17.87;;;22.50;99.90;;;;;;5081905;28;20458;-67
2023/05/14 09:13:58;;;;;;;12.93;12.43;;;22.80;99.90;;;;;;5087658;28;20533;-67
2023/05/14 09:16:26;;;;;;;15.60;14.70;;;23.60;99.90;;;;;;5086568;28;20499;-67
2023/05/14 09:18:53;;;;;;;20.60;18.40;;;24.00;99.90;;;;;;5083827;28;20883;-66
2023/05/14 09:21:21;;;;;;;15.70;14.90;;;23.80;99.90;;;;;;5083039;28;20454;-67
2023/05/14 09:23:54;;;;;;;15.40;14.53;;;23.80;99.90;;;;;;5080154;28;20976;-67
2023/05/14 09:26:25;;;;;;;14.00;13.30;;;22.60;99.90;;;;;;5080960;28;20552;-67
2023/05/14 09:28:55;;;;;;;13.23;12.70;;;22.60;99.90;;;;;;5083348;28;20561;-68
2023/05/14 09:31:22;;;;;;;12.87;12.37;;;23.00;99.90;;;;;;5081871;28;20495;-68
2023/05/14 09:33:50;;;;;;;13.97;13.37;;;23.70;99.90;;;;;;5080560;28;20467;-69
2023/05/14 09:36:21;;;;;;;13.87;13.07;;;24.40;99.90;;;;;;5081522;28;20471;-68
2023/05/14 09:38:48;;;;;;;13.50;12.90;;;24.70;99.90;;;;;;5076282;28;20878;-69
2023/05/14 09:41:15;;;;;;;14.87;14.17;;;24.90;99.90;;;;;;5082515;28;20469;-69
2023/05/14 09:43:42;;;;;;;14.83;14.10;;;24.70;99.90;;;;;;5077675;28;20515;-70
2023/05/14 09:46:09;;;;;;;14.13;13.53;;;24.50;99.90;;;;;;5084280;28;20455;-70
2023/05/14 09:48:36;;;;;;;17.83;16.50;;;24.70;99.90;;;;;;5099510;28;20808;-71
2023/05/14 09:51:04;;;;;;;14.93;14.23;;;25.30;99.90;;;;;;5105942;28;20457;-69
2023/05/14 09:53:33;;;;;;;15.87;14.97;;;25.20;99.90;;;;;;5105363;28;20457;-70
2023/05/14 09:56:00;;;;;;;13.70;13.10;;;25.30;99.90;;;;;;5103093;27;20458;-69
2023/05/14 09:58:28;;;;;;;14.80;14.10;;;25.40;99.90;;;;;;5103434;27;20478;-70
2023/05/14 10:00:57;;;;;;;13.90;13.20;;;25.60;99.90;;;;;;5102700;28;20492;-70
2023/05/14 10:03:26;;;;;;;15.10;14.40;;;25.80;99.90;;;;;;5098275;28;20507;-67
2023/05/14 10:05:55;;;;;;;14.07;13.47;;;26.20;99.90;;;;;;5108403;28;20449;-67
2023/05/14 10:08:36;;;;;;;14.20;13.60;;;26.60;99.90;;;;;;5102343;27;20453;-68
2023/05/14 10:11:06;;;;;;;15.23;14.53;;;27.60;99.90;;;;;;5105728;28;20453;-68
2023/05/14 10:13:39;;;;;;;14.20;13.60;;;27.30;99.90;;;;;;5095544;27;20462;-68
2023/05/14 10:16:10;;;;;;;15.70;15.00;;;27.20;99.90;;;;;;5102888;28;20468;-68
2023/05/14 10:18:44;;;;;;;16.53;15.53;;;27.70;99.90;;;;;;5099162;28;20480;-68
2023/05/14 10:21:14;;;;;;;16.63;15.73;;;27.60;99.90;;;;;;5102181;27;21076;-68
2023/05/14 10:23:43;;;;;;;19.47;18.07;;;27.20;99.90;;;;;;5103509;28;20456;-66
2023/05/14 10:26:10;;;;;;;15.53;14.83;;;27.50;99.90;;;;;;5107017;28;20461;-67
2023/05/14 10:28:37;;;;;;;14.13;13.53;;;27.70;99.90;;;;;;5105420;28;20461;-67
2023/05/14 10:31:04;;;;;;;16.77;15.97;;;27.70;99.90;;;;;;5105487;28;20489;-67
2023/05/14 10:33:46;;;;;;;17.40;16.30;;;27.60;99.90;;;;;;5101431;27;20457;-68
2023/05/14 10:36:14;;;;;;;15.13;14.43;;;27.90;98.70;;;;;;5101357;28;20752;-67
2023/05/14 10:38:43;;;;;;;19.20;18.10;;;27.50;98.40;;;;;;5098046;27;20461;-69
2023/05/14 10:41:12;;;;;;;17.13;16.13;;;27.00;97.80;;;;;;5102327;28;20505;-69
2023/05/14 10:43:40;;;;;;;15.27;14.57;;;26.30;99.40;;;;;;5099048;28;20473;-69
2023/05/14 10:46:09;;;;;;;15.57;14.87;;;25.60;99.90;;;;;;5099298;28;20469;-69
2023/05/14 10:48:37;;;;;;;15.50;14.80;;;24.70;99.90;;;;;;5103124;28;20486;-69
2023/05/14 10:51:07;;;;;;;17.30;16.30;;;24.50;99.90;;;;;;5093106;27;20782;-68
2023/05/14 10:53:36;;;;;;;15.50;14.80;;;23.90;99.90;;;;;;5107907;28;20815;-68
2023/05/14 10:56:06;;;;;;;49.07;35.87;;;24.20;99.90;;;;;;5109192;28;20465;-68
2023/05/14 10:58:36;;;;;;;17.43;16.53;;;25.60;99.90;;;;;;5103626;28;20481;-69
2023/05/14 11:01:05;;;;;;;15.70;15.00;;;27.20;99.90;;;;;;5100943;27;20465;-70
2023/05/14 11:03:38;;;;;;;22.73;20.83;;;27.40;99.90;;;;;;5107476;28;20492;-68
2023/05/14 11:06:07;;;;;;;16.70;15.90;;;28.50;99.90;;;;;;5100687;27;20461;-69
2023/05/14 11:08:34;;;;;;;17.27;16.10;;;28.60;95.40;;;;;;5106459;28;20457;-68
2023/05/14 11:11:03;;;;;;;19.43;18.37;;;28.60;92.70;;;;;;5108168;28;20527;-67
2023/05/14 11:13:30;;;;;;;20.37;19.27;;;29.50;90.90;;;;;;5107897;28;20514;-68
2023/05/14 11:15:58;;;;;;;18.20;17.20;;;29.20;90.00;;;;;;5103279;28;20704;-68
2023/05/14 11:18:28;;;;;;;19.27;18.10;;;28.30;91.50;;;;;;5107370;28;20933;-68
2023/05/14 11:20:58;;;;;;;17.93;17.03;;;27.40;92.10;;;;;;5099287;27;20882;-67
2023/05/14 11:23:26;;;;;;;17.37;16.57;;;26.00;93.00;;;;;;5102896;28;20458;-68
2023/05/14 11:25:54;;;;;;;17.00;16.20;;;25.80;94.30;;;;;;5104127;28;20905;-68
2023/05/14 11:28:24;;;;;;;18.33;17.33;;;26.90;93.40;;;;;;5101618;28;20810;-68
2023/05/14 11:30:52;;;;;;;18.90;17.57;;;27.10;92.10;;;;;;5102315;28;20512;-67
2023/05/14 11:33:20;;;;;;;17.50;16.50;;;26.40;92.10;;;;;;5100527;28;20509;-67
2023/05/14 11:35:48;;;;;;;19.60;17.70;;;26.10;94.60;;;;;;5108436;28;20508;-67
2023/05/14 11:38:16;;;;;;;17.27;16.47;;;26.70;93.30;;;;;;5101478;28;20580;-67
2023/05/14 11:40:43;;;;;;;15.97;15.27;;;26.10;93.00;;;;;;5101252;28;20465;-67
2023/05/14 11:43:11;;;;;;;16.53;15.80;;;25.70;92.90;;;;;;5107777;28;20828;-67
2023/05/14 11:45:41;;;;;;;16.43;15.63;;;25.30;95.20;;;;;;5107867;28;20457;-68
2023/05/14 11:48:14;;;;;;;16.10;15.40;;;24.90;95.60;;;;;;5107585;28;20481;-67
2023/05/14 11:50:47;;;;;;;19.10;17.93;;;24.50;96.80;;;;;;5103632;28;20492;-67
2023/05/14 11:53:17;;;;;;;17.90;16.80;;;24.10;97.00;;;;;;5098462;28;20466;-67
2023/05/14 11:55:45;;;;;;;15.40;14.70;;;23.80;95.50;;;;;;5106986;28;20468;-67
2023/05/14 11:58:13;;;;;;;16.60;15.80;;;23.50;96.90;;;;;;5105609;28;20476;-68
2023/05/14 12:00:43;;;;;;;15.80;15.10;;;23.40;99.10;;;;;;5099891;28;20468;-67
2023/05/14 12:03:11;;;;;;;16.50;15.67;;;23.30;98.80;;;;;;5107558;28;20469;-67
2023/05/14 12:05:38;;;;;;;16.10;15.40;;;23.40;98.80;;;;;;5100807;28;20461;-67
2023/05/14 12:08:19;;;;;;;15.13;14.53;;;23.40;95.30;;;;;;5103250;28;20514;-67
2023/05/14 12:10:48;;;;;;;14.63;14.03;;;23.50;95.00;;;;;;5102246;28;20498;-67
2023/05/14 12:13:16;;;;;;;14.80;14.20;;;23.70;96.20;;;;;;5103572;28;20544;-67
2023/05/14 12:15:46;;;;;;;15.07;14.47;;;23.90;97.50;;;;;;5093571;28;20514;-67
2023/05/14 12:18:14;;;;;;;15.73;14.93;;;24.00;95.70;;;;;;5106611;28;20556;-68
2023/05/14 12:20:46;;;;;;;15.70;14.90;;;24.20;93.80;;;;;;5090069;28;20492;-68
2023/05/14 12:23:13;;;;;;;15.70;15.00;;;24.30;91.30;;;;;;5103034;28;20463;-67
2023/05/14 12:25:40;;;;;;;16.33;15.63;;;24.60;92.00;;;;;;5099311;28;20961;-67
2023/05/14 12:28:14;;;;;;;15.73;15.03;;;24.90;91.40;;;;;;5106545;28;20464;-67
2023/05/14 12:30:41;;;;;;;21.40;15.00;;;24.50;91.80;;;;;;5106734;27;20472;-68
2023/05/14 12:33:10;;;;;;;15.40;14.70;;;24.50;93.50;;;;;;5111184;28;20484;-67
2023/05/14 12:35:37;;;;;;;16.10;15.40;;;24.30;91.40;;;;;;5101567;27;20959;-68
2023/05/14 12:38:04;;;;;;;19.57;17.93;;;24.20;90.30;;;;;;5100911;28;20982;-67